Terminal Aerodrome Forecast
Issued by NWS

Home | Current Version | Previous Version | Text Only | Print | Product List | Glossary On
Versions: 1 2 3 4 5 6 7 8 9 10 11 12 13 14
000
FTUS45 KABQ 060537
TAFROW
TAF
KROW 060537Z 0606/0706 21007KT P6SM BKN100
     FM061500 VRB06KT P6SM SCT150
     FM061900 35007KT P6SM SCT080 SCT150
     FM062300 03013KT P6SM VCTS BKN080CB BKN140
     FM070300 03015KT P6SM VCTS BKN040CB BKN090=

USA.gov is the U.S. government's official web portal to all federal, state and local government web resources and services.